createdAt,value
2018-11-20T00:01:09.608Z,78.60
2018-11-20T00:03:57.211Z,78.80
2018-11-20T00:06:45.410Z,78.80
2018-11-20T00:09:48.460Z,79.00
2018-11-20T00:12:51.629Z,79.10
2018-11-20T00:15:40.054Z,79.00
2018-11-20T00:18:43.484Z,79.10
2018-11-20T00:21:34.721Z,79.10
2018-11-20T00:24:22.895Z,79.20
2018-11-20T00:27:08.222Z,79.20
2018-11-20T00:29:56.438Z,79.30
2018-11-20T00:32:59.705Z,79.30
2018-11-20T00:35:42.430Z,79.30
2018-11-20T00:38:36.800Z,79.30
2018-11-20T00:41:17.635Z,79.40
2018-11-20T00:44:08.420Z,79.30
2018-11-20T00:46:59.657Z,79.40
2018-11-20T00:49:59.730Z,79.70
2018-11-20T00:52:48.341Z,79.50
2018-11-20T00:56:12.663Z,79.70
2018-11-20T00:58:56.650Z,79.50
2018-11-20T01:01:38.738Z,79.80
2018-11-20T01:04:36.356Z,79.70
2018-11-20T01:07:23.628Z,79.70
2018-11-20T01:10:02.720Z,79.70
2018-11-20T01:12:47.196Z,79.90
2018-11-20T01:15:40.980Z,80.20
2018-11-20T01:18:31.673Z,79.80
2018-11-20T01:21:18.651Z,79.50
2018-11-20T01:24:18.369Z,79.70
2018-11-20T01:27:09.284Z,79.80
2018-11-20T01:29:55.843Z,79.50
2018-11-20T01:32:34.489Z,79.50
2018-11-20T01:35:15.471Z,79.60
2018-11-20T01:38:06.300Z,79.70
2018-11-20T01:40:54.480Z,79.50
2018-11-20T01:43:33.962Z,79.70
2018-11-20T01:46:22.474Z,79.80
2018-11-20T01:49:05.976Z,79.80
2018-11-20T01:52:03.126Z,79.80
2018-11-20T01:54:43.072Z,79.90
2018-11-20T01:57:36.538Z,79.90
2018-11-20T02:00:23.515Z,80.00
2018-11-20T02:03:11.741Z,80.30
2018-11-20T02:05:59.058Z,80.10
2018-11-20T02:08:45.747Z,80.20
2018-11-20T02:11:32.974Z,80.20
2018-11-20T02:14:23.860Z,80.50
2018-11-20T02:17:20.707Z,80.50
2018-11-20T02:20:08.930Z,80.70
2018-11-20T02:22:55.971Z,80.60
2018-11-20T02:25:43.216Z,80.60
2018-11-20T02:28:28.051Z,80.80
2018-11-20T02:31:16.878Z,80.60
2018-11-20T02:34:00.951Z,80.80
2018-11-20T02:37:04.334Z,80.80
2018-11-20T02:40:07.440Z,80.90
2018-11-20T02:42:53.048Z,81.00
2018-11-20T02:45:36.726Z,81.00
2018-11-20T02:48:23.801Z,81.10
2018-11-20T02:51:30.053Z,81.20
2018-11-20T02:54:14.074Z,81.40
2018-11-20T02:57:00.897Z,81.40
2018-11-20T03:00:01.497Z,81.40
2018-11-20T03:02:48.313Z,81.50
2018-11-20T03:05:35.014Z,81.50
2018-11-20T03:08:32.355Z,81.30
2018-11-20T03:11:26.410Z,81.30
2018-11-20T03:14:13.497Z,81.10
2018-11-20T03:17:01.673Z,81.10
2018-11-20T03:19:48.760Z,81.30
2018-11-20T03:22:49.058Z,81.40
2018-11-20T03:26:09.519Z,81.50
2018-11-20T03:29:13.146Z,81.50
2018-11-20T03:32:07.345Z,81.60
2018-11-20T03:34:55.528Z,81.70
2018-11-20T03:37:42.124Z,81.40
2018-11-20T03:40:32.868Z,81.30
2018-11-20T03:43:19.567Z,81.40
2018-11-20T03:45:59.598Z,81.30
2018-11-20T03:48:47.114Z,81.40
2018-11-20T03:51:33.982Z,81.60
2018-11-20T03:54:25.885Z,81.40
2018-11-20T03:57:12.833Z,81.20
2018-11-20T03:59:53.972Z,81.30
2018-11-20T04:02:40.753Z,81.40
2018-11-20T04:05:17.757Z,80.80
2018-11-20T04:08:12.150Z,80.90
2018-11-20T04:11:02.372Z,81.00
2018-11-20T04:13:50.387Z,80.70
2018-11-20T04:16:56.499Z,80.90
2018-11-20T04:19:39.672Z,80.80
2018-11-20T04:22:26.718Z,80.80
2018-11-20T04:25:08.728Z,80.60
2018-11-20T04:27:55.658Z,80.80
2018-11-20T04:31:13.439Z,80.70
2018-11-20T04:34:00.170Z,80.60
2018-11-20T04:36:47.677Z,80.50
2018-11-20T04:39:37.412Z,80.50
2018-11-20T04:42:28.722Z,80.30
2018-11-20T04:45:20.167Z,80.50
2018-11-20T04:48:06.297Z,80.20
2018-11-20T04:50:52.014Z,80.20
2018-11-20T04:53:32.186Z,80.20
2018-11-20T04:56:29.036Z,80.20
2018-11-20T04:59:13.121Z,79.90
2018-11-20T05:02:19.614Z,79.90
2018-11-20T05:05:06.701Z,79.80
2018-11-20T05:07:58.951Z,80.10
2018-11-20T05:10:52.944Z,79.90
2018-11-20T05:13:43.878Z,80.10
2018-11-20T05:16:27.280Z,80.10
2018-11-20T05:19:14.025Z,79.90
2018-11-20T05:22:02.222Z,80.10
2018-11-20T05:24:50.049Z,80.00
2018-11-20T05:27:37.005Z,79.70
2018-11-20T05:30:31.638Z,79.70
2018-11-20T05:33:22.733Z,79.70
2018-11-20T05:36:13.551Z,79.90
2018-11-20T05:39:00.467Z,79.80
2018-11-20T05:41:48.504Z,79.90
2018-11-20T05:44:40.693Z,79.60
2018-11-20T05:47:27.438Z,79.70
2018-11-20T05:50:27.395Z,79.80
2018-11-20T05:53:06.026Z,80.00
2018-11-20T05:55:53.308Z,80.00
2018-11-20T05:58:29.230Z,79.90
2018-11-20T06:01:23.643Z,79.90
2018-11-20T06:04:20.698Z,80.00
2018-11-20T06:07:04.186Z,80.00
2018-11-20T06:09:52.359Z,79.90
2018-11-20T06:12:55.379Z,80.10
2018-11-20T06:15:41.945Z,80.10
2018-11-20T06:18:28.857Z,79.80
2018-11-20T06:21:15.457Z,80.00
2018-11-20T06:23:52.840Z,80.00
2018-11-20T06:26:41.005Z,80.10
2018-11-20T06:29:37.929Z,80.00
2018-11-20T06:32:29.782Z,80.00
2018-11-20T06:35:20.606Z,80.00
2018-11-20T06:38:11.756Z,80.30
2018-11-20T06:41:10.092Z,80.20
2018-11-20T06:43:58.233Z,80.40
2018-11-20T06:46:38.345Z,80.40
2018-11-20T06:49:41.480Z,80.10
2018-11-20T06:52:28.229Z,80.10
2018-11-20T06:55:07.194Z,80.00
2018-11-20T06:57:53.861Z,80.20
2018-11-20T07:00:46.065Z,80.40
2018-11-20T07:03:37.142Z,80.20
2018-11-20T07:06:24.537Z,80.00
2018-11-20T07:09:06.260Z,80.10
2018-11-20T07:11:47.570Z,80.00
2018-11-20T07:14:43.671Z,80.10
2018-11-20T07:17:34.995Z,80.10
2018-11-20T07:20:21.562Z,79.90
2018-11-20T07:23:05.857Z,80.00
2018-11-20T07:25:59.521Z,80.20
2018-11-20T07:28:50.228Z,79.90
2018-11-20T07:31:41.470Z,79.90
2018-11-20T07:34:22.658Z,80.00
2018-11-20T07:37:17.308Z,80.10
2018-11-20T07:40:04.160Z,80.10
2018-11-20T07:42:51.117Z,80.20
2018-11-20T07:45:57.436Z,80.40
2018-11-20T07:48:45.266Z,80.10
2018-11-20T07:51:45.654Z,80.10
2018-11-20T07:54:45.751Z,80.00
2018-11-20T07:57:52.101Z,80.10
2018-11-20T08:00:43.111Z,80.10
2018-11-20T08:03:29.757Z,80.00
2018-11-20T08:06:17.300Z,80.20
2018-11-20T08:09:04.254Z,80.20
2018-11-20T08:12:01.169Z,80.10
2018-11-20T08:14:40.076Z,80.40
2018-11-20T08:17:26.702Z,80.20
2018-11-20T08:20:13.910Z,79.90
2018-11-20T08:23:01.754Z,79.80
2018-11-20T08:25:48.782Z,79.80
2018-11-20T08:28:27.412Z,86.10
2018-11-20T08:31:07.532Z,77.30
2018-11-20T08:33:54.869Z,78.10
2018-11-20T08:36:36.366Z,79.20
2018-11-20T08:39:25.756Z,79.50
2018-11-20T08:42:12.919Z,79.90
2018-11-20T08:45:05.187Z,80.40
2018-11-20T08:47:52.394Z,80.10
2018-11-20T08:50:55.353Z,80.30
2018-11-20T08:53:42.932Z,80.10
2018-11-20T08:56:29.659Z,80.20
2018-11-20T08:59:14.304Z,80.10
2018-11-20T09:02:00.329Z,80.20
2018-11-20T09:04:47.503Z,80.20
2018-11-20T09:07:44.581Z,80.30
2018-11-20T09:10:42.346Z,80.20
2018-11-20T09:13:29.500Z,80.10
2018-11-20T09:16:08.447Z,80.30
2018-11-20T09:18:56.899Z,80.30
2018-11-20T09:21:51.030Z,79.80
2018-11-20T09:24:44.894Z,80.10
2018-11-20T09:27:32.154Z,80.20
2018-11-20T09:30:19.042Z,80.10
2018-11-20T09:33:16.106Z,80.10
2018-11-20T09:36:02.954Z,80.00
2018-11-20T09:38:42.348Z,80.10
2018-11-20T09:41:22.497Z,83.20
2018-11-20T09:44:09.434Z,79.00
2018-11-20T09:47:01.244Z,79.10
2018-11-20T09:49:43.242Z,79.40
2018-11-20T09:52:31.441Z,79.90
2018-11-20T09:55:18.290Z,79.80
2018-11-20T09:57:58.071Z,80.00
2018-11-20T10:00:40.966Z,79.90
2018-11-20T10:03:29.151Z,79.80
2018-11-20T10:06:23.257Z,80.10
2018-11-20T10:09:09.782Z,79.70
2018-11-20T10:11:52.298Z,79.70
2018-11-20T10:14:35.472Z,79.80
2018-11-20T10:17:23.574Z,79.60
2018-11-20T10:20:05.399Z,79.60
2018-11-20T10:22:53.565Z,79.90
2018-11-20T10:25:49.617Z,79.80
2018-11-20T10:28:40.406Z,79.60
2018-11-20T10:31:27.463Z,79.60
2018-11-20T10:34:15.689Z,79.70
2018-11-20T10:37:02.952Z,79.60
2018-11-20T10:39:43.029Z,79.80
2018-11-20T10:42:30.162Z,79.70
2018-11-20T10:45:22.905Z,79.70
2018-11-20T10:48:19.722Z,79.40
2018-11-20T10:51:06.487Z,79.80
2018-11-20T10:54:06.513Z,79.40
2018-11-20T10:56:53.513Z,79.50
2018-11-20T10:59:44.303Z,79.60
2018-11-20T11:02:30.947Z,79.40
2018-11-20T11:05:17.860Z,79.00
2018-11-20T11:08:05.253Z,78.80
2018-11-20T11:10:59.484Z,79.20
2018-11-20T11:13:46.312Z,79.20
2018-11-20T11:16:26.249Z,79.50
2018-11-20T11:19:27.185Z,78.90
2018-11-20T11:22:15.348Z,78.70
2018-11-20T11:24:59.776Z,78.90
2018-11-20T11:27:48.278Z,79.00
2018-11-20T11:30:35.282Z,78.90
2018-11-20T11:33:28.809Z,78.90
2018-11-20T11:36:12.382Z,79.20
2018-11-20T11:39:38.809Z,78.50
2018-11-20T11:42:26.491Z,85.00
2018-11-20T11:45:29.650Z,73.50
2018-11-20T11:48:15.830Z,75.30
2018-11-20T11:51:03.497Z,76.70
2018-11-20T11:53:38.370Z,77.50
2018-11-20T11:56:24.478Z,78.00
2018-11-20T11:59:10.498Z,78.30
2018-11-20T12:04:52.283Z,78.80
2018-11-20T12:07:38.400Z,79.10
2018-11-20T12:10:29.965Z,79.00
2018-11-20T12:16:01.629Z,79.50
2018-11-20T12:19:01.881Z,78.70
2018-11-20T12:21:58.454Z,79.00
2018-11-20T12:24:54.919Z,79.20
2018-11-20T12:27:36.088Z,79.10
2018-11-20T12:30:22.310Z,79.20
2018-11-20T12:33:15.933Z,79.50
2018-11-20T12:36:14.225Z,79.20
2018-11-20T12:39:06.315Z,79.60
2018-11-20T12:42:08.639Z,79.50
2018-11-20T12:44:54.360Z,81.70
2018-11-20T12:47:40.546Z,73.70
2018-11-20T12:50:39.644Z,68.30
2018-11-20T12:53:26.300Z,71.50
2018-11-20T12:56:13.989Z,75.10
2018-11-20T12:58:59.271Z,76.90
2018-11-20T13:01:41.529Z,78.30
2018-11-20T13:04:28.732Z,78.90
2018-11-20T13:07:19.544Z,79.30
2018-11-20T13:10:05.682Z,79.90
2018-11-20T13:12:51.571Z,80.40
2018-11-20T13:15:37.319Z,80.80
2018-11-20T13:18:23.778Z,81.10
2018-11-20T13:21:11.073Z,81.40
2018-11-20T13:23:59.383Z,81.40
2018-11-20T13:26:58.618Z,81.70
2018-11-20T13:29:44.658Z,81.90
2018-11-20T13:32:22.285Z,82.10
2018-11-20T13:35:25.092Z,82.90
2018-11-20T13:38:11.720Z,82.80
2018-11-20T13:41:34.936Z,82.60
2018-11-20T13:44:24.924Z,83.10
2018-11-20T13:47:21.124Z,83.40
2018-11-20T13:50:16.163Z,83.60
2018-11-20T13:53:12.195Z,83.80
2018-11-20T13:56:17.836Z,84.20
2018-11-20T13:59:03.817Z,84.30
2018-11-20T14:01:51.740Z,84.30
2018-11-20T14:04:41.957Z,84.40
2018-11-20T14:07:20.412Z,84.60
2018-11-20T14:10:11.840Z,84.40
2018-11-20T14:12:58.258Z,84.20
2018-11-20T14:15:43.268Z,84.40
2018-11-20T14:18:45.787Z,84.20
2018-11-20T14:21:33.407Z,84.00
2018-11-20T14:24:29.963Z,84.20
2018-11-20T14:27:16.579Z,84.60
2018-11-20T14:30:06.999Z,84.20
2018-11-20T14:32:54.381Z,84.10
2018-11-20T14:35:42.072Z,84.20
2018-11-20T14:38:32.732Z,83.70
2018-11-20T14:41:26.124Z,83.60
2018-11-20T14:49:46.753Z,83.50
2018-11-20T14:52:34.111Z,83.40
2018-11-20T14:55:21.751Z,83.40
2018-11-20T14:58:29.888Z,83.20
2018-11-20T15:01:16.388Z,83.20
2018-11-20T15:04:02.329Z,83.00
2018-11-20T15:06:47.826Z,82.80
2018-11-20T15:09:35.182Z,82.40
2018-11-20T15:12:17.076Z,82.50
2018-11-20T15:15:03.070Z,82.40
2018-11-20T15:17:41.883Z,87.30
2018-11-20T15:20:32.992Z,78.80
2018-11-20T15:23:13.794Z,79.40
2018-11-20T15:25:54.619Z,80.50
2018-11-20T15:28:42.296Z,80.70
2018-11-20T15:31:38.600Z,81.30
2018-11-20T15:34:24.817Z,85.10
2018-11-20T15:37:11.198Z,79.60
2018-11-20T15:39:55.253Z,80.40
2018-11-20T15:42:37.680Z,81.00
2018-11-20T15:45:24.175Z,81.20
2018-11-20T15:48:03.076Z,81.70
2018-11-20T15:50:59.422Z,81.80
2018-11-20T15:53:49.544Z,81.90
2018-11-20T15:56:37.828Z,81.90
2018-11-20T15:59:24.903Z,82.20
2018-11-20T16:02:15.418Z,82.50
2018-11-20T16:05:02.681Z,82.30
2018-11-20T16:07:56.492Z,82.40
2018-11-20T16:10:44.222Z,82.60
2018-11-20T16:13:22.421Z,82.50
2018-11-20T16:16:06.409Z,82.60
2018-11-20T16:18:59.504Z,82.90
2018-11-20T16:21:44.188Z,83.00
2018-11-20T16:24:31.896Z,83.00
2018-11-20T16:27:25.045Z,82.80
2018-11-20T16:30:21.671Z,82.80
2018-11-20T16:33:21.765Z,83.20
2018-11-20T16:36:24.653Z,83.50
2018-11-20T16:39:10.742Z,83.50
2018-11-20T16:42:13.378Z,83.40
2018-11-20T16:44:59.473Z,83.70
2018-11-20T16:47:45.555Z,83.80
2018-11-20T16:50:39.435Z,84.20
2018-11-20T16:53:36.014Z,84.20
2018-11-20T16:56:24.047Z,84.60
2018-11-20T16:59:13.526Z,84.50
2018-11-20T17:01:59.628Z,84.90
2018-11-20T17:04:49.820Z,85.60
2018-11-20T17:07:37.134Z,85.70
2018-11-20T17:10:16.352Z,86.10
2018-11-20T17:13:06.501Z,86.20
2018-11-20T17:16:02.763Z,86.20
2018-11-20T17:18:48.802Z,86.30
2018-11-20T17:21:27.689Z,86.30
2018-11-20T17:24:23.969Z,86.70
2018-11-20T17:27:10.021Z,86.70
2018-11-20T17:29:55.306Z,86.80
2018-11-20T17:32:43.838Z,86.70
2018-11-20T17:35:31.178Z,86.80
2018-11-20T17:38:31.180Z,87.00
2018-11-20T17:41:22.531Z,87.00
2018-11-20T17:44:13.003Z,86.90
2018-11-20T17:47:15.244Z,87.20
2018-11-20T17:50:01.600Z,87.20
2018-11-20T17:52:55.098Z,87.40
2018-11-20T17:55:41.383Z,87.20
2018-11-20T17:58:38.056Z,87.40
2018-11-20T18:01:18.483Z,87.40
2018-11-20T18:03:55.528Z,87.50
2018-11-20T18:06:33.444Z,87.70
2018-11-20T18:09:12.058Z,87.90
2018-11-20T18:12:09.011Z,88.00
2018-11-20T18:14:55.368Z,87.90
2018-11-20T18:17:43.052Z,88.20
2018-11-20T18:20:30.384Z,88.20
2018-11-20T18:23:17.132Z,88.10
2018-11-20T18:26:11.284Z,88.00
2018-11-20T18:29:01.665Z,87.90
2018-11-20T18:31:56.538Z,88.00
2018-11-20T18:34:44.031Z,88.00
2018-11-20T18:37:42.010Z,88.00
2018-11-20T18:40:44.805Z,87.90
2018-11-20T18:43:23.257Z,88.10
2018-11-20T18:46:08.966Z,88.00
2018-11-20T18:48:56.305Z,88.40
2018-11-20T18:51:42.558Z,88.10
2018-11-20T18:54:37.176Z,88.20
2018-11-20T18:57:23.573Z,89.50
2018-11-20T19:00:09.849Z,84.60
2018-11-20T19:03:06.960Z,85.60
2018-11-20T19:05:49.609Z,86.30
2018-11-20T19:08:35.872Z,87.20
2018-11-20T19:11:20.383Z,87.50
2018-11-20T19:14:00.149Z,88.00
2018-11-20T19:16:51.725Z,88.40
2018-11-20T19:19:34.493Z,88.80
2018-11-20T19:22:34.447Z,88.40
2018-11-20T19:25:20.841Z,88.50
2018-11-20T19:28:03.923Z,88.60
2018-11-20T19:30:53.840Z,88.50
2018-11-20T19:33:40.704Z,89.10
2018-11-20T19:36:36.944Z,89.20
2018-11-20T19:39:39.632Z,89.20
2018-11-20T19:42:26.256Z,89.00
2018-11-20T19:45:10.081Z,89.30
2018-11-20T19:47:56.554Z,89.40
2018-11-20T19:50:32.450Z,89.30
2018-11-20T19:53:11.744Z,89.70
2018-11-20T19:56:00.650Z,89.60
2018-11-20T19:59:03.059Z,89.60
2018-11-20T20:01:50.735Z,89.60
2018-11-20T20:04:36.907Z,89.40
2018-11-20T20:07:23.059Z,89.40
2018-11-20T20:10:17.522Z,89.20
2018-11-20T20:13:03.862Z,89.30
2018-11-20T20:15:56.803Z,89.40
2018-11-20T20:18:53.057Z,89.60
2018-11-20T20:21:40.928Z,89.50
2018-11-20T20:24:28.271Z,89.60
2018-11-20T20:27:34.478Z,89.60
2018-11-20T20:30:40.209Z,89.80
2018-11-20T20:33:39.747Z,89.90
2018-11-20T20:36:45.308Z,89.80
2018-11-20T20:39:37.890Z,89.90
2018-11-20T20:42:40.473Z,89.80
2018-11-20T20:45:37.557Z,89.80
2018-11-20T20:48:15.050Z,90.00
2018-11-20T20:51:08.257Z,90.10
2018-11-20T20:53:51.111Z,89.90
2018-11-20T20:56:47.355Z,89.90
2018-11-20T20:59:36.246Z,90.00
2018-11-20T21:02:22.603Z,90.00
2018-11-20T21:05:10.135Z,90.20
2018-11-20T21:07:53.150Z,90.20
2018-11-20T21:10:40.820Z,90.40
2018-11-20T21:13:36.735Z,90.20
2018-11-20T21:16:22.799Z,90.20
2018-11-20T21:19:10.193Z,89.90
2018-11-20T21:22:13.206Z,89.80
2018-11-20T21:24:52.586Z,89.70
2018-11-20T21:27:45.961Z,89.90
2018-11-20T21:30:28.957Z,89.90
2018-11-20T21:33:19.381Z,89.50
2018-11-20T21:36:10.040Z,89.40
2018-11-20T21:39:04.356Z,89.40
2018-11-20T21:42:03.548Z,89.30
2018-11-20T21:45:03.200Z,89.50
2018-11-20T21:48:00.042Z,89.80
2018-11-20T21:50:56.980Z,89.80
2018-11-20T21:53:33.735Z,89.90
2018-11-20T21:56:19.636Z,89.40
2018-11-20T21:59:07.432Z,89.30
2018-11-20T22:01:50.035Z,89.30
2018-11-20T22:04:37.362Z,89.30
2018-11-20T22:07:30.837Z,89.50
2018-11-20T22:10:16.807Z,89.40
2018-11-20T22:12:58.111Z,89.10
2018-11-20T22:15:44.026Z,88.90
2018-11-20T22:18:43.772Z,89.00
2018-11-20T22:21:43.318Z,89.00
2018-11-20T22:24:25.654Z,89.00
2018-11-20T22:27:16.859Z,88.90
2018-11-20T22:30:19.709Z,89.00
2018-11-20T22:33:13.102Z,89.10
2018-11-20T22:35:59.661Z,89.10
2018-11-20T22:38:58.807Z,89.10
2018-11-20T22:41:45.123Z,89.10
2018-11-20T22:44:23.827Z,89.20
2018-11-20T22:47:09.926Z,89.10
2018-11-20T22:49:53.136Z,89.00
2018-11-20T22:52:32.875Z,88.90
2018-11-20T22:55:19.711Z,88.90
2018-11-20T22:58:25.011Z,88.80
2018-11-20T23:01:27.248Z,88.50
2018-11-20T23:04:27.004Z,88.50
2018-11-20T23:07:14.616Z,88.70
2018-11-20T23:09:43.068Z,88.90
2018-11-20T23:12:12.192Z,89.10
2018-11-20T23:14:40.669Z,89.20
2018-11-20T23:17:09.156Z,89.10
2018-11-20T23:19:37.590Z,89.00
2018-11-20T23:22:06.052Z,89.10
2018-11-20T23:24:34.921Z,89.20
2018-11-20T23:27:03.110Z,89.10
2018-11-20T23:29:31.707Z,89.10
2018-11-20T23:32:00.593Z,89.30
2018-11-20T23:34:29.465Z,89.30
2018-11-20T23:36:58.015Z,89.10
2018-11-20T23:39:26.159Z,89.20
2018-11-20T23:41:55.331Z,89.30
2018-11-20T23:44:23.759Z,89.20
2018-11-20T23:46:51.885Z,89.10
2018-11-20T23:49:21.344Z,89.10
2018-11-20T23:51:49.479Z,89.20
2018-11-20T23:54:17.915Z,89.30
2018-11-20T23:56:46.072Z,89.40
2018-11-20T23:59:14.827Z,89.60
